sensor_id;sensor_type;location;lat;lon;timestamp;P1;durP1;ratioP1;P2;durP2;ratioP2
16031;SDS011;8120;48.308;8.914;2023-07-30T00:00:05;3.33;;;2.20;;
16031;SDS011;8120;48.308;8.914;2023-07-30T00:02:34;3.67;;;2.20;;
16031;SDS011;8120;48.308;8.914;2023-07-30T00:05:02;3.90;;;2.30;;
16031;SDS011;8120;48.308;8.914;2023-07-30T00:07:29;5.07;;;2.20;;
16031;SDS011;8120;48.308;8.914;2023-07-30T00:09:59;3.93;;;2.50;;
16031;SDS011;8120;48.308;8.914;2023-07-30T00:12:26;4.50;;;2.23;;
16031;SDS011;8120;48.308;8.914;2023-07-30T00:14:54;2.90;;;2.50;;
16031;SDS011;8120;48.308;8.914;2023-07-30T00:17:22;4.13;;;2.43;;
16031;SDS011;8120;48.308;8.914;2023-07-30T00:19:50;3.37;;;2.37;;
16031;SDS011;8120;48.308;8.914;2023-07-30T00:22:18;3.17;;;2.10;;
16031;SDS011;8120;48.308;8.914;2023-07-30T00:24:49;2.97;;;2.23;;
16031;SDS011;8120;48.308;8.914;2023-07-30T00:27:18;3.13;;;2.07;;
16031;SDS011;8120;48.308;8.914;2023-07-30T00:29:48;6.47;;;2.87;;
16031;SDS011;8120;48.308;8.914;2023-07-30T00:32:16;3.90;;;2.60;;
16031;SDS011;8120;48.308;8.914;2023-07-30T00:34:44;3.90;;;2.33;;
16031;SDS011;8120;48.308;8.914;2023-07-30T00:37:12;4.70;;;2.00;;
16031;SDS011;8120;48.308;8.914;2023-07-30T00:39:40;4.10;;;2.37;;
16031;SDS011;8120;48.308;8.914;2023-07-30T00:42:08;4.17;;;2.40;;
16031;SDS011;8120;48.308;8.914;2023-07-30T00:44:37;3.07;;;2.10;;
16031;SDS011;8120;48.308;8.914;2023-07-30T00:47:05;3.10;;;2.20;;
16031;SDS011;8120;48.308;8.914;2023-07-30T00:49:34;4.13;;;2.50;;
16031;SDS011;8120;48.308;8.914;2023-07-30T00:52:02;6.40;;;2.90;;
16031;SDS011;8120;48.308;8.914;2023-07-30T00:54:31;3.17;;;2.10;;
16031;SDS011;8120;48.308;8.914;2023-07-30T00:56:59;5.00;;;2.50;;
16031;SDS011;8120;48.308;8.914;2023-07-30T00:59:27;3.30;;;2.40;;
16031;SDS011;8120;48.308;8.914;2023-07-30T01:01:56;3.33;;;2.00;;
16031;SDS011;8120;48.308;8.914;2023-07-30T01:04:26;3.57;;;2.07;;
16031;SDS011;8120;48.308;8.914;2023-07-30T01:06:54;3.67;;;2.00;;
16031;SDS011;8120;48.308;8.914;2023-07-30T01:09:22;4.70;;;2.30;;
16031;SDS011;8120;48.308;8.914;2023-07-30T01:11:51;3.43;;;2.27;;
16031;SDS011;8120;48.308;8.914;2023-07-30T01:14:21;3.80;;;2.27;;
16031;SDS011;8120;48.308;8.914;2023-07-30T01:16:52;5.40;;;2.17;;
16031;SDS011;8120;48.308;8.914;2023-07-30T01:19:21;3.40;;;1.90;;
16031;SDS011;8120;48.308;8.914;2023-07-30T01:21:51;3.63;;;2.17;;
16031;SDS011;8120;48.308;8.914;2023-07-30T01:24:18;4.37;;;2.33;;
16031;SDS011;8120;48.308;8.914;2023-07-30T01:26:48;3.57;;;2.10;;
16031;SDS011;8120;48.308;8.914;2023-07-30T01:29:22;3.53;;;2.30;;
16031;SDS011;8120;48.308;8.914;2023-07-30T01:31:55;3.73;;;2.50;;
16031;SDS011;8120;48.308;8.914;2023-07-30T01:34:24;6.80;;;3.03;;
16031;SDS011;8120;48.308;8.914;2023-07-30T01:36:56;4.00;;;2.60;;
16031;SDS011;8120;48.308;8.914;2023-07-30T01:39:26;3.03;;;2.07;;
16031;SDS011;8120;48.308;8.914;2023-07-30T01:41:55;3.43;;;2.00;;
16031;SDS011;8120;48.308;8.914;2023-07-30T01:44:22;2.97;;;1.97;;
16031;SDS011;8120;48.308;8.914;2023-07-30T01:46:50;3.20;;;2.17;;
16031;SDS011;8120;48.308;8.914;2023-07-30T01:49:18;2.80;;;2.10;;
16031;SDS011;8120;48.308;8.914;2023-07-30T01:51:46;3.60;;;2.20;;
16031;SDS011;8120;48.308;8.914;2023-07-30T01:54:15;3.10;;;2.13;;
16031;SDS011;8120;48.308;8.914;2023-07-30T01:56:43;3.63;;;1.90;;
16031;SDS011;8120;48.308;8.914;2023-07-30T01:59:11;2.93;;;2.03;;
16031;SDS011;8120;48.308;8.914;2023-07-30T02:01:39;3.13;;;2.20;;
16031;SDS011;8120;48.308;8.914;2023-07-30T02:04:07;3.13;;;2.27;;
16031;SDS011;8120;48.308;8.914;2023-07-30T02:06:35;3.20;;;2.17;;
16031;SDS011;8120;48.308;8.914;2023-07-30T02:09:03;4.30;;;2.10;;
16031;SDS011;8120;48.308;8.914;2023-07-30T02:11:32;3.10;;;2.00;;
16031;SDS011;8120;48.308;8.914;2023-07-30T02:14:00;5.40;;;2.33;;
16031;SDS011;8120;48.308;8.914;2023-07-30T02:16:28;2.17;;;1.80;;
16031;SDS011;8120;48.308;8.914;2023-07-30T02:18:56;3.17;;;2.17;;
16031;SDS011;8120;48.308;8.914;2023-07-30T02:21:24;3.67;;;2.20;;
16031;SDS011;8120;48.308;8.914;2023-07-30T02:23:52;3.13;;;1.83;;
16031;SDS011;8120;48.308;8.914;2023-07-30T02:26:19;3.13;;;1.87;;
16031;SDS011;8120;48.308;8.914;2023-07-30T02:28:49;2.77;;;1.90;;
16031;SDS011;8120;48.308;8.914;2023-07-30T02:31:16;4.17;;;2.50;;
16031;SDS011;8120;48.308;8.914;2023-07-30T02:33:44;2.70;;;2.20;;
16031;SDS011;8120;48.308;8.914;2023-07-30T02:36:12;2.73;;;2.10;;
16031;SDS011;8120;48.308;8.914;2023-07-30T02:38:40;3.10;;;2.00;;
16031;SDS011;8120;48.308;8.914;2023-07-30T02:41:08;2.67;;;2.00;;
16031;SDS011;8120;48.308;8.914;2023-07-30T02:43:36;2.90;;;2.03;;
16031;SDS011;8120;48.308;8.914;2023-07-30T02:46:05;4.90;;;2.20;;
16031;SDS011;8120;48.308;8.914;2023-07-30T02:48:33;3.07;;;2.13;;
16031;SDS011;8120;48.308;8.914;2023-07-30T02:51:01;3.63;;;2.27;;
16031;SDS011;8120;48.308;8.914;2023-07-30T02:53:29;2.90;;;2.17;;
16031;SDS011;8120;48.308;8.914;2023-07-30T02:55:57;4.00;;;2.17;;
16031;SDS011;8120;48.308;8.914;2023-07-30T02:58:25;3.97;;;2.10;;
16031;SDS011;8120;48.308;8.914;2023-07-30T03:00:53;3.27;;;2.10;;
16031;SDS011;8120;48.308;8.914;2023-07-30T03:03:22;4.63;;;2.40;;
16031;SDS011;8120;48.308;8.914;2023-07-30T03:05:50;3.17;;;2.20;;
16031;SDS011;8120;48.308;8.914;2023-07-30T03:08:18;3.77;;;2.13;;
16031;SDS011;8120;48.308;8.914;2023-07-30T03:10:45;2.97;;;2.03;;
16031;SDS011;8120;48.308;8.914;2023-07-30T03:13:13;4.90;;;2.23;;
16031;SDS011;8120;48.308;8.914;2023-07-30T03:15:41;4.30;;;2.47;;
16031;SDS011;8120;48.308;8.914;2023-07-30T03:18:09;2.93;;;2.27;;
16031;SDS011;8120;48.308;8.914;2023-07-30T03:20:38;3.07;;;2.20;;
16031;SDS011;8120;48.308;8.914;2023-07-30T03:23:06;4.53;;;2.50;;
16031;SDS011;8120;48.308;8.914;2023-07-30T03:25:34;3.77;;;2.30;;
16031;SDS011;8120;48.308;8.914;2023-07-30T03:28:01;3.37;;;2.30;;
16031;SDS011;8120;48.308;8.914;2023-07-30T03:30:30;4.93;;;2.53;;
16031;SDS011;8120;48.308;8.914;2023-07-30T03:32:57;2.20;;;1.97;;
16031;SDS011;8120;48.308;8.914;2023-07-30T03:35:25;2.03;;;1.83;;
16031;SDS011;8120;48.308;8.914;2023-07-30T03:37:54;5.23;;;2.17;;
16031;SDS011;8120;48.308;8.914;2023-07-30T03:40:22;2.93;;;2.10;;
16031;SDS011;8120;48.308;8.914;2023-07-30T03:42:50;4.80;;;2.27;;
16031;SDS011;8120;48.308;8.914;2023-07-30T03:45:18;3.63;;;1.90;;
16031;SDS011;8120;48.308;8.914;2023-07-30T03:47:46;3.37;;;2.20;;
16031;SDS011;8120;48.308;8.914;2023-07-30T03:50:14;3.93;;;1.70;;
16031;SDS011;8120;48.308;8.914;2023-07-30T03:52:42;3.33;;;1.90;;
16031;SDS011;8120;48.308;8.914;2023-07-30T03:55:11;3.23;;;2.03;;
16031;SDS011;8120;48.308;8.914;2023-07-30T03:57:39;2.73;;;1.80;;
16031;SDS011;8120;48.308;8.914;2023-07-30T04:00:07;2.77;;;2.03;;
16031;SDS011;8120;48.308;8.914;2023-07-30T04:02:35;4.17;;;2.83;;
16031;SDS011;8120;48.308;8.914;2023-07-30T04:05:03;4.53;;;2.03;;
16031;SDS011;8120;48.308;8.914;2023-07-30T04:07:31;3.30;;;1.93;;
16031;SDS011;8120;48.308;8.914;2023-07-30T04:09:59;4.30;;;2.43;;
16031;SDS011;8120;48.308;8.914;2023-07-30T04:12:28;3.43;;;1.87;;
16031;SDS011;8120;48.308;8.914;2023-07-30T04:14:56;2.47;;;1.80;;
16031;SDS011;8120;48.308;8.914;2023-07-30T04:17:24;2.87;;;2.13;;
16031;SDS011;8120;48.308;8.914;2023-07-30T04:19:52;2.43;;;1.80;;
16031;SDS011;8120;48.308;8.914;2023-07-30T04:22:20;2.40;;;1.90;;
16031;SDS011;8120;48.308;8.914;2023-07-30T04:24:48;2.93;;;2.00;;
16031;SDS011;8120;48.308;8.914;2023-07-30T04:27:16;2.43;;;1.90;;
16031;SDS011;8120;48.308;8.914;2023-07-30T04:29:45;2.17;;;1.63;;
16031;SDS011;8120;48.308;8.914;2023-07-30T04:32:13;2.73;;;2.17;;
16031;SDS011;8120;48.308;8.914;2023-07-30T04:34:41;3.63;;;1.97;;
16031;SDS011;8120;48.308;8.914;2023-07-30T04:37:09;2.93;;;1.80;;
16031;SDS011;8120;48.308;8.914;2023-07-30T04:39:37;2.73;;;2.00;;
16031;SDS011;8120;48.308;8.914;2023-07-30T04:42:05;2.97;;;2.03;;
16031;SDS011;8120;48.308;8.914;2023-07-30T04:44:33;3.10;;;2.00;;
16031;SDS011;8120;48.308;8.914;2023-07-30T04:47:02;2.67;;;1.83;;
16031;SDS011;8120;48.308;8.914;2023-07-30T04:49:30;2.47;;;1.80;;
16031;SDS011;8120;48.308;8.914;2023-07-30T04:51:58;3.80;;;1.97;;
16031;SDS011;8120;48.308;8.914;2023-07-30T04:54:26;2.50;;;1.90;;
16031;SDS011;8120;48.308;8.914;2023-07-30T04:56:53;1.93;;;1.73;;
16031;SDS011;8120;48.308;8.914;2023-07-30T04:59:21;1.73;;;1.60;;
16031;SDS011;8120;48.308;8.914;2023-07-30T05:01:49;2.67;;;1.60;;
16031;SDS011;8120;48.308;8.914;2023-07-30T05:04:18;2.60;;;1.63;;
16031;SDS011;8120;48.308;8.914;2023-07-30T05:06:46;2.57;;;1.67;;
16031;SDS011;8120;48.308;8.914;2023-07-30T05:09:14;2.23;;;1.50;;
16031;SDS011;8120;48.308;8.914;2023-07-30T05:11:42;2.07;;;1.37;;
16031;SDS011;8120;48.308;8.914;2023-07-30T05:14:10;2.43;;;1.70;;
16031;SDS011;8120;48.308;8.914;2023-07-30T05:16:37;4.57;;;1.80;;
16031;SDS011;8120;48.308;8.914;2023-07-30T05:19:05;2.93;;;1.87;;
16031;SDS011;8120;48.308;8.914;2023-07-30T05:21:35;1.87;;;1.60;;
16031;SDS011;8120;48.308;8.914;2023-07-30T05:24:04;3.17;;;1.50;;
16031;SDS011;8120;48.308;8.914;2023-07-30T05:26:32;3.33;;;1.63;;
16031;SDS011;8120;48.308;8.914;2023-07-30T05:29:00;1.50;;;1.40;;
16031;SDS011;8120;48.308;8.914;2023-07-30T05:31:27;1.90;;;1.40;;
16031;SDS011;8120;48.308;8.914;2023-07-30T05:33:55;3.10;;;1.80;;
16031;SDS011;8120;48.308;8.914;2023-07-30T05:36:23;1.83;;;1.40;;
16031;SDS011;8120;48.308;8.914;2023-07-30T05:38:52;2.37;;;1.70;;
16031;SDS011;8120;48.308;8.914;2023-07-30T05:41:20;2.50;;;1.80;;
16031;SDS011;8120;48.308;8.914;2023-07-30T05:43:48;1.27;;;1.17;;
16031;SDS011;8120;48.308;8.914;2023-07-30T05:46:16;3.00;;;1.83;;
16031;SDS011;8120;48.308;8.914;2023-07-30T05:48:44;3.33;;;1.67;;
16031;SDS011;8120;48.308;8.914;2023-07-30T05:51:12;2.67;;;1.53;;
16031;SDS011;8120;48.308;8.914;2023-07-30T05:53:39;3.37;;;1.60;;
16031;SDS011;8120;48.308;8.914;2023-07-30T05:56:09;3.40;;;1.88;;
16031;SDS011;8120;48.308;8.914;2023-07-30T05:58:39;1.60;;;1.50;;
16031;SDS011;8120;48.308;8.914;2023-07-30T06:01:07;2.00;;;1.33;;
16031;SDS011;8120;48.308;8.914;2023-07-30T06:03:35;2.42;;;1.80;;
16031;SDS011;8120;48.308;8.914;2023-07-30T06:06:03;1.90;;;1.60;;
16031;SDS011;8120;48.308;8.914;2023-07-30T06:08:30;4.23;;;2.13;;
16031;SDS011;8120;48.308;8.914;2023-07-30T06:11:00;2.07;;;1.50;;
16031;SDS011;8120;48.308;8.914;2023-07-30T06:13:29;2.35;;;1.75;;
16031;SDS011;8120;48.308;8.914;2023-07-30T06:15:57;2.90;;;1.85;;
16031;SDS011;8120;48.308;8.914;2023-07-30T06:18:25;2.40;;;1.80;;
16031;SDS011;8120;48.308;8.914;2023-07-30T06:20:53;1.90;;;1.50;;
16031;SDS011;8120;48.308;8.914;2023-07-30T06:23:21;2.42;;;1.80;;
16031;SDS011;8120;48.308;8.914;2023-07-30T06:25:49;4.47;;;1.65;;
16031;SDS011;8120;48.308;8.914;2023-07-30T06:28:17;3.15;;;1.80;;
16031;SDS011;8120;48.308;8.914;2023-07-30T06:30:46;4.13;;;1.75;;
16031;SDS011;8120;48.308;8.914;2023-07-30T06:33:14;3.33;;;1.70;;
16031;SDS011;8120;48.308;8.914;2023-07-30T06:35:42;2.47;;;1.55;;
16031;SDS011;8120;48.308;8.914;2023-07-30T06:38:09;1.60;;;1.50;;
16031;SDS011;8120;48.308;8.914;2023-07-30T06:40:37;2.00;;;1.40;;
16031;SDS011;8120;48.308;8.914;2023-07-30T06:43:05;2.42;;;1.38;;
16031;SDS011;8120;48.308;8.914;2023-07-30T06:45:33;2.60;;;1.77;;
16031;SDS011;8120;48.308;8.914;2023-07-30T06:48:02;1.40;;;1.30;;
16031;SDS011;8120;48.308;8.914;2023-07-30T06:50:30;3.67;;;1.80;;
16031;SDS011;8120;48.308;8.914;2023-07-30T06:52:58;2.30;;;1.70;;
16031;SDS011;8120;48.308;8.914;2023-07-30T06:55:26;2.45;;;1.80;;
16031;SDS011;8120;48.308;8.914;2023-07-30T06:57:54;2.47;;;1.70;;
16031;SDS011;8120;48.308;8.914;2023-07-30T07:00:21;2.97;;;1.75;;
16031;SDS011;8120;48.308;8.914;2023-07-30T07:02:50;2.33;;;1.60;;
16031;SDS011;8120;48.308;8.914;2023-07-30T07:05:19;3.20;;;1.60;;
16031;SDS011;8120;48.308;8.914;2023-07-30T07:07:47;1.83;;;1.52;;
16031;SDS011;8120;48.308;8.914;2023-07-30T07:10:15;3.60;;;1.70;;
16031;SDS011;8120;48.308;8.914;2023-07-30T07:12:43;1.80;;;1.70;;
16031;SDS011;8120;48.308;8.914;2023-07-30T07:15:10;2.13;;;1.47;;
16031;SDS011;8120;48.308;8.914;2023-07-30T07:17:38;4.13;;;2.17;;
16031;SDS011;8120;48.308;8.914;2023-07-30T07:20:07;2.90;;;1.57;;
16031;SDS011;8120;48.308;8.914;2023-07-30T07:22:36;3.53;;;1.80;;
16031;SDS011;8120;48.308;8.914;2023-07-30T07:25:04;3.37;;;1.93;;
16031;SDS011;8120;48.308;8.914;2023-07-30T07:27:33;2.70;;;1.70;;
16031;SDS011;8120;48.308;8.914;2023-07-30T07:30:00;4.37;;;1.57;;
16031;SDS011;8120;48.308;8.914;2023-07-30T07:32:29;2.50;;;1.50;;
16031;SDS011;8120;48.308;8.914;2023-07-30T07:34:57;2.67;;;1.73;;
16031;SDS011;8120;48.308;8.914;2023-07-30T07:37:24;7.27;;;1.60;;
16031;SDS011;8120;48.308;8.914;2023-07-30T07:39:54;2.60;;;1.50;;
16031;SDS011;8120;48.308;8.914;2023-07-30T07:42:21;2.57;;;1.70;;
16031;SDS011;8120;48.308;8.914;2023-07-30T07:44:49;3.78;;;1.67;;
16031;SDS011;8120;48.308;8.914;2023-07-30T07:47:17;3.65;;;1.80;;
16031;SDS011;8120;48.308;8.914;2023-07-30T07:49:45;2.35;;;1.58;;
16031;SDS011;8120;48.308;8.914;2023-07-30T07:52:14;2.45;;;1.50;;
16031;SDS011;8120;48.308;8.914;2023-07-30T07:54:42;5.18;;;1.80;;
16031;SDS011;8120;48.308;8.914;2023-07-30T07:57:11;3.35;;;1.33;;
16031;SDS011;8120;48.308;8.914;2023-07-30T07:59:39;2.13;;;1.40;;
16031;SDS011;8120;48.308;8.914;2023-07-30T08:02:07;3.33;;;1.50;;
16031;SDS011;8120;48.308;8.914;2023-07-30T08:04:35;2.50;;;1.52;;
16031;SDS011;8120;48.308;8.914;2023-07-30T08:07:03;2.25;;;1.60;;
16031;SDS011;8120;48.308;8.914;2023-07-30T08:09:31;2.40;;;1.43;;
16031;SDS011;8120;48.308;8.914;2023-07-30T08:11:59;4.13;;;1.87;;
16031;SDS011;8120;48.308;8.914;2023-07-30T08:14:28;3.10;;;1.83;;
16031;SDS011;8120;48.308;8.914;2023-07-30T08:16:57;2.87;;;1.70;;
16031;SDS011;8120;48.308;8.914;2023-07-30T08:19:25;2.77;;;1.53;;
16031;SDS011;8120;48.308;8.914;2023-07-30T08:21:53;1.50;;;1.33;;
16031;SDS011;8120;48.308;8.914;2023-07-30T08:24:22;2.87;;;1.90;;
16031;SDS011;8120;48.308;8.914;2023-07-30T08:26:50;1.40;;;1.30;;
16031;SDS011;8120;48.308;8.914;2023-07-30T08:29:18;1.88;;;1.55;;
16031;SDS011;8120;48.308;8.914;2023-07-30T08:31:47;2.60;;;1.88;;
16031;SDS011;8120;48.308;8.914;2023-07-30T08:34:15;1.60;;;1.50;;
16031;SDS011;8120;48.308;8.914;2023-07-30T08:36:43;2.67;;;1.80;;
16031;SDS011;8120;48.308;8.914;2023-07-30T08:39:11;2.73;;;1.83;;
16031;SDS011;8120;48.308;8.914;2023-07-30T08:41:39;2.07;;;1.70;;
16031;SDS011;8120;48.308;8.914;2023-07-30T08:44:07;1.90;;;1.60;;
16031;SDS011;8120;48.308;8.914;2023-07-30T08:46:36;2.07;;;1.60;;
16031;SDS011;8120;48.308;8.914;2023-07-30T08:49:05;2.50;;;1.80;;
16031;SDS011;8120;48.308;8.914;2023-07-30T08:51:33;2.57;;;1.77;;
16031;SDS011;8120;48.308;8.914;2023-07-30T08:54:03;2.53;;;1.77;;
16031;SDS011;8120;48.308;8.914;2023-07-30T08:56:32;1.90;;;1.60;;
16031;SDS011;8120;48.308;8.914;2023-07-30T08:59:00;2.17;;;1.70;;
16031;SDS011;8120;48.308;8.914;2023-07-30T09:01:30;1.97;;;1.53;;
16031;SDS011;8120;48.308;8.914;2023-07-30T09:04:02;10.57;;;2.10;;
16031;SDS011;8120;48.308;8.914;2023-07-30T09:06:32;2.77;;;1.50;;
16031;SDS011;8120;48.308;8.914;2023-07-30T09:09:00;3.27;;;1.97;;
16031;SDS011;8120;48.308;8.914;2023-07-30T09:11:29;3.10;;;1.90;;
16031;SDS011;8120;48.308;8.914;2023-07-30T09:13:57;1.93;;;1.37;;
16031;SDS011;8120;48.308;8.914;2023-07-30T09:16:28;2.23;;;1.60;;
16031;SDS011;8120;48.308;8.914;2023-07-30T09:18:56;2.37;;;1.70;;
16031;SDS011;8120;48.308;8.914;2023-07-30T09:21:32;3.83;;;1.77;;
16031;SDS011;8120;48.308;8.914;2023-07-30T09:24:02;4.63;;;1.67;;
16031;SDS011;8120;48.308;8.914;2023-07-30T09:26:40;2.20;;;1.60;;
16031;SDS011;8120;48.308;8.914;2023-07-30T09:29:10;3.27;;;1.70;;
16031;SDS011;8120;48.308;8.914;2023-07-30T09:31:47;2.23;;;1.47;;
16031;SDS011;8120;48.308;8.914;2023-07-30T09:34:17;2.47;;;1.63;;
16031;SDS011;8120;48.308;8.914;2023-07-30T09:36:48;3.27;;;1.70;;
16031;SDS011;8120;48.308;8.914;2023-07-30T09:39:19;2.60;;;1.50;;
16031;SDS011;8120;48.308;8.914;2023-07-30T09:41:48;2.23;;;1.50;;
16031;SDS011;8120;48.308;8.914;2023-07-30T09:44:17;2.73;;;1.70;;
16031;SDS011;8120;48.308;8.914;2023-07-30T09:46:46;1.57;;;1.33;;
16031;SDS011;8120;48.308;8.914;2023-07-30T09:49:15;1.77;;;1.27;;
16031;SDS011;8120;48.308;8.914;2023-07-30T09:51:44;2.53;;;1.70;;
16031;SDS011;8120;48.308;8.914;2023-07-30T09:54:14;4.17;;;1.40;;
16031;SDS011;8120;48.308;8.914;2023-07-30T09:56:42;2.27;;;1.43;;
16031;SDS011;8120;48.308;8.914;2023-07-30T09:59:10;2.23;;;1.77;;
16031;SDS011;8120;48.308;8.914;2023-07-30T10:01:38;1.70;;;1.60;;
16031;SDS011;8120;48.308;8.914;2023-07-30T10:04:15;2.70;;;1.43;;
16031;SDS011;8120;48.308;8.914;2023-07-30T10:06:48;2.47;;;1.70;;
16031;SDS011;8120;48.308;8.914;2023-07-30T10:09:19;2.03;;;1.70;;
16031;SDS011;8120;48.308;8.914;2023-07-30T10:11:49;2.37;;;1.80;;
16031;SDS011;8120;48.308;8.914;2023-07-30T10:14:21;2.93;;;2.00;;
16031;SDS011;8120;48.308;8.914;2023-07-30T10:16:52;1.63;;;1.37;;
16031;SDS011;8120;48.308;8.914;2023-07-30T10:19:24;2.40;;;1.70;;
16031;SDS011;8120;48.308;8.914;2023-07-30T10:21:53;2.70;;;1.70;;
16031;SDS011;8120;48.308;8.914;2023-07-30T10:24:28;2.43;;;1.77;;
16031;SDS011;8120;48.308;8.914;2023-07-30T10:26:57;1.90;;;1.37;;
16031;SDS011;8120;48.308;8.914;2023-07-30T10:29:34;3.40;;;1.77;;
16031;SDS011;8120;48.308;8.914;2023-07-30T10:32:04;4.07;;;1.87;;
16031;SDS011;8120;48.308;8.914;2023-07-30T10:34:43;1.93;;;1.70;;
16031;SDS011;8120;48.308;8.914;2023-07-30T10:37:17;2.83;;;1.73;;
16031;SDS011;8120;48.308;8.914;2023-07-30T10:39:48;2.87;;;1.90;;
16031;SDS011;8120;48.308;8.914;2023-07-30T10:42:17;3.77;;;1.80;;
16031;SDS011;8120;48.308;8.914;2023-07-30T10:44:45;2.77;;;1.97;;
16031;SDS011;8120;48.308;8.914;2023-07-30T10:47:13;2.60;;;1.70;;
16031;SDS011;8120;48.308;8.914;2023-07-30T10:50:00;2.00;;;1.80;;
16031;SDS011;8120;48.308;8.914;2023-07-30T10:52:29;2.53;;;1.87;;
16031;SDS011;8120;48.308;8.914;2023-07-30T10:55:00;2.03;;;1.50;;
16031;SDS011;8120;48.308;8.914;2023-07-30T10:57:29;1.73;;;1.57;;
16031;SDS011;8120;48.308;8.914;2023-07-30T10:59:58;3.97;;;1.77;;
16031;SDS011;8120;48.308;8.914;2023-07-30T11:02:27;4.47;;;1.97;;
16031;SDS011;8120;48.308;8.914;2023-07-30T11:04:55;2.87;;;1.57;;
16031;SDS011;8120;48.308;8.914;2023-07-30T11:07:23;1.63;;;1.43;;
16031;SDS011;8120;48.308;8.914;2023-07-30T11:10:01;2.40;;;1.77;;
16031;SDS011;8120;48.308;8.914;2023-07-30T11:12:29;2.47;;;1.80;;
16031;SDS011;8120;48.308;8.914;2023-07-30T11:15:01;2.43;;;1.73;;
16031;SDS011;8120;48.308;8.914;2023-07-30T11:17:29;2.23;;;1.63;;
16031;SDS011;8120;48.308;8.914;2023-07-30T11:19:57;2.20;;;1.70;;
16031;SDS011;8120;48.308;8.914;2023-07-30T11:22:29;2.60;;;1.50;;
16031;SDS011;8120;48.308;8.914;2023-07-30T11:24:57;2.97;;;1.50;;
16031;SDS011;8120;48.308;8.914;2023-07-30T11:27:29;1.83;;;1.43;;
16031;SDS011;8120;48.308;8.914;2023-07-30T11:29:56;2.83;;;1.70;;
16031;SDS011;8120;48.308;8.914;2023-07-30T11:32:26;3.20;;;1.87;;
16031;SDS011;8120;48.308;8.914;2023-07-30T11:34:56;2.07;;;1.50;;
16031;SDS011;8120;48.308;8.914;2023-07-30T11:37:24;2.40;;;1.77;;
16031;SDS011;8120;48.308;8.914;2023-07-30T11:39:51;2.43;;;1.83;;
16031;SDS011;8120;48.308;8.914;2023-07-30T11:42:20;4.83;;;1.80;;
16031;SDS011;8120;48.308;8.914;2023-07-30T11:44:49;2.60;;;1.70;;
16031;SDS011;8120;48.308;8.914;2023-07-30T11:47:20;2.53;;;1.80;;
16031;SDS011;8120;48.308;8.914;2023-07-30T11:49:55;3.53;;;1.80;;
16031;SDS011;8120;48.308;8.914;2023-07-30T11:52:23;3.30;;;1.77;;
16031;SDS011;8120;48.308;8.914;2023-07-30T11:54:59;2.63;;;1.70;;
16031;SDS011;8120;48.308;8.914;2023-07-30T11:57:33;3.10;;;2.20;;
16031;SDS011;8120;48.308;8.914;2023-07-30T12:00:03;4.03;;;2.00;;
16031;SDS011;8120;48.308;8.914;2023-07-30T12:02:34;1.63;;;1.47;;
16031;SDS011;8120;48.308;8.914;2023-07-30T12:05:02;2.38;;;1.50;;
16031;SDS011;8120;48.308;8.914;2023-07-30T12:07:40;2.72;;;2.00;;
16031;SDS011;8120;48.308;8.914;2023-07-30T12:10:09;2.87;;;1.93;;
16031;SDS011;8120;48.308;8.914;2023-07-30T12:12:43;3.05;;;2.17;;
16031;SDS011;8120;48.308;8.914;2023-07-30T12:15:12;2.60;;;1.70;;
16031;SDS011;8120;48.308;8.914;2023-07-30T12:17:40;1.77;;;1.38;;
16031;SDS011;8120;48.308;8.914;2023-07-30T12:20:09;5.50;;;2.00;;
16031;SDS011;8120;48.308;8.914;2023-07-30T12:22:38;2.90;;;1.70;;
16031;SDS011;8120;48.308;8.914;2023-07-30T12:25:08;3.07;;;1.70;;
16031;SDS011;8120;48.308;8.914;2023-07-30T12:27:36;3.72;;;1.92;;
16031;SDS011;8120;48.308;8.914;2023-07-30T12:30:05;2.30;;;1.80;;
16031;SDS011;8120;48.308;8.914;2023-07-30T12:32:35;1.93;;;1.73;;
16031;SDS011;8120;48.308;8.914;2023-07-30T12:35:03;3.63;;;1.98;;
16031;SDS011;8120;48.308;8.914;2023-07-30T12:37:31;2.13;;;1.80;;
16031;SDS011;8120;48.308;8.914;2023-07-30T12:40:01;3.72;;;1.67;;
16031;SDS011;8120;48.308;8.914;2023-07-30T12:42:30;2.63;;;2.08;;
16031;SDS011;8120;48.308;8.914;2023-07-30T12:44:58;4.53;;;2.00;;
16031;SDS011;8120;48.308;8.914;2023-07-30T12:47:26;2.58;;;2.05;;
16031;SDS011;8120;48.308;8.914;2023-07-30T12:49:55;2.53;;;2.00;;
16031;SDS011;8120;48.308;8.914;2023-07-30T12:52:23;2.47;;;1.83;;
16031;SDS011;8120;48.308;8.914;2023-07-30T12:54:51;5.73;;;2.17;;
16031;SDS011;8120;48.308;8.914;2023-07-30T12:57:19;3.27;;;1.70;;
16031;SDS011;8120;48.308;8.914;2023-07-30T12:59:46;3.93;;;2.20;;
16031;SDS011;8120;48.308;8.914;2023-07-30T13:02:14;3.00;;;2.37;;
16031;SDS011;8120;48.308;8.914;2023-07-30T13:04:42;2.57;;;1.87;;
16031;SDS011;8120;48.308;8.914;2023-07-30T13:07:11;2.63;;;1.93;;
16031;SDS011;8120;48.308;8.914;2023-07-30T13:09:40;4.53;;;2.17;;
16031;SDS011;8120;48.308;8.914;2023-07-30T13:12:08;2.92;;;1.90;;
16031;SDS011;8120;48.308;8.914;2023-07-30T13:14:36;2.67;;;1.70;;
16031;SDS011;8120;48.308;8.914;2023-07-30T13:17:03;2.92;;;2.10;;
16031;SDS011;8120;48.308;8.914;2023-07-30T13:19:32;2.60;;;2.00;;
16031;SDS011;8120;48.308;8.914;2023-07-30T13:22:01;4.30;;;1.80;;
16031;SDS011;8120;48.308;8.914;2023-07-30T13:24:30;2.75;;;2.28;;
16031;SDS011;8120;48.308;8.914;2023-07-30T13:26:59;3.35;;;1.90;;
16031;SDS011;8120;48.308;8.914;2023-07-30T13:29:27;2.53;;;1.85;;
16031;SDS011;8120;48.308;8.914;2023-07-30T13:31:55;6.03;;;2.00;;
16031;SDS011;8120;48.308;8.914;2023-07-30T13:34:22;3.63;;;2.05;;
16031;SDS011;8120;48.308;8.914;2023-07-30T13:36:51;3.10;;;1.95;;
16031;SDS011;8120;48.308;8.914;2023-07-30T13:39:18;2.22;;;1.88;;
16031;SDS011;8120;48.308;8.914;2023-07-30T13:41:47;4.13;;;2.42;;
16031;SDS011;8120;48.308;8.914;2023-07-30T13:44:15;4.22;;;1.98;;
16031;SDS011;8120;48.308;8.914;2023-07-30T13:46:43;3.38;;;1.98;;
16031;SDS011;8120;48.308;8.914;2023-07-30T13:49:11;6.47;;;2.22;;
16031;SDS011;8120;48.308;8.914;2023-07-30T13:51:39;3.70;;;2.08;;
16031;SDS011;8120;48.308;8.914;2023-07-30T13:54:07;2.30;;;2.00;;
16031;SDS011;8120;48.308;8.914;2023-07-30T13:56:35;4.72;;;2.42;;
16031;SDS011;8120;48.308;8.914;2023-07-30T13:59:06;3.78;;;2.35;;
16031;SDS011;8120;48.308;8.914;2023-07-30T14:01:34;3.42;;;2.22;;
16031;SDS011;8120;48.308;8.914;2023-07-30T14:04:02;2.05;;;1.85;;
16031;SDS011;8120;48.308;8.914;2023-07-30T14:06:30;6.40;;;2.70;;
16031;SDS011;8120;48.308;8.914;2023-07-30T14:08:58;3.30;;;2.03;;
16031;SDS011;8120;48.308;8.914;2023-07-30T14:11:26;4.00;;;2.35;;
16031;SDS011;8120;48.308;8.914;2023-07-30T14:13:54;4.53;;;2.30;;
16031;SDS011;8120;48.308;8.914;2023-07-30T14:16:25;3.70;;;2.37;;
16031;SDS011;8120;48.308;8.914;2023-07-30T14:18:53;4.85;;;2.33;;
16031;SDS011;8120;48.308;8.914;2023-07-30T14:21:21;3.47;;;2.30;;
16031;SDS011;8120;48.308;8.914;2023-07-30T14:23:49;3.07;;;2.07;;
16031;SDS011;8120;48.308;8.914;2023-07-30T14:26:17;3.33;;;2.33;;
16031;SDS011;8120;48.308;8.914;2023-07-30T14:28:44;2.30;;;2.00;;
16031;SDS011;8120;48.308;8.914;2023-07-30T14:31:12;3.13;;;2.13;;
16031;SDS011;8120;48.308;8.914;2023-07-30T14:33:42;2.93;;;2.20;;
16031;SDS011;8120;48.308;8.914;2023-07-30T14:36:10;5.37;;;2.77;;
16031;SDS011;8120;48.308;8.914;2023-07-30T14:38:38;3.00;;;2.33;;
16031;SDS011;8120;48.308;8.914;2023-07-30T14:41:06;3.60;;;2.17;;
16031;SDS011;8120;48.308;8.914;2023-07-30T14:43:35;6.70;;;2.43;;
16031;SDS011;8120;48.308;8.914;2023-07-30T14:46:03;4.27;;;2.30;;
16031;SDS011;8120;48.308;8.914;2023-07-30T14:48:31;2.83;;;1.93;;
16031;SDS011;8120;48.308;8.914;2023-07-30T14:51:00;3.40;;;2.10;;
16031;SDS011;8120;48.308;8.914;2023-07-30T14:53:28;4.00;;;2.00;;
16031;SDS011;8120;48.308;8.914;2023-07-30T14:55:56;3.90;;;2.03;;
16031;SDS011;8120;48.308;8.914;2023-07-30T14:58:27;4.20;;;1.70;;
16031;SDS011;8120;48.308;8.914;2023-07-30T15:00:55;3.07;;;1.70;;
16031;SDS011;8120;48.308;8.914;2023-07-30T15:03:23;3.07;;;1.87;;
16031;SDS011;8120;48.308;8.914;2023-07-30T15:05:51;3.10;;;1.70;;
16031;SDS011;8120;48.308;8.914;2023-07-30T15:08:20;2.70;;;2.13;;